Borden Springs, Alabama
Current Conditions -  °F | °C
As of 11:53 AM on Saturday 25 Oct 2014 (Local Time) from KANB Reporting Station
Clear Clear  
Wind Chill: 70°   Ceiling: Unl
Heat Index: 70°   Visibility: 10mi
Dew Point: 48°   Wind: 8mph
Humidity: 46%   Direction: 10°N
Pressure: 30.1"   Gusts: NA
Location:  33.8638°N, 85.6035°W
Report Text: KANB 251653Z AUTO 01007KT 10SM CLR 21/09 A3010 RMK AO2 SLP193 T02110089
Loading
Personal Weather Stations






























Interactive Weather Map
Tropical Storm Tracking
New forecast layout! Learn more

10-Day Weather Forecast

Advertisements
Track Severe Weather on mobile